EDT,Max TemperatureF,Mean TemperatureF,Min TemperatureF,Max Dew PointF,MeanDew PointF,Min DewpointF,Max Humidity, Mean Humidity, Min Humidity, Max Sea Level PressureIn, Mean Sea Level PressureIn, Min Sea Level PressureIn, Max VisibilityMiles, Mean VisibilityMiles, Min VisibilityMiles, Max Wind SpeedMPH, Mean Wind SpeedMPH, Max Gust SpeedMPH,PrecipitationIn, CloudCover, Events, WindDirDegrees
2013-3-1,35,34,32,34,32,32,100,94,87,29.98,29.96,29.92,10,4,1,10,6,,0.00,8,,290
2013-3-2,32,29,26,32,25,21,100,86,80,30.08,30.02,29.96,10,8,2,13,6,,0.00,8,,347
2013-3-3,32,28,23,23,21,18,86,76,55,30.08,30.06,30.04,10,9,2,12,6,17,0.00,6,,296
2013-3-4,46,32,17,27,20,16,93,63,32,30.15,30.07,29.96,10,10,10,8,4,,0.00,3,,129
2013-3-5,48,39,30,46,36,27,100,84,46,29.96,29.76,29.55,10,8,0,34,9,44,0.00,8,,181
2013-3-6,30,29,28,28,27,25,93,88,80,30.26,30.03,29.78,10,7,2,22,15,32,0.00,8,,292
2013-3-7,33,32,30,28,27,25,93,83,75,30.37,30.32,30.25,10,9,4,9,4,,0.00,8,,310
2013-3-8,46,36,26,28,27,25,93,70,50,30.44,30.37,30.33,10,10,7,9,3,,0.00,1,,53
2013-3-9,66,48,30,32,27,25,86,51,21,30.33,30.21,30.08,10,10,10,10,5,,0.00,2,,129
2013-3-10,69,60,51,30,29,27,41,30,20,30.09,30.00,29.88,10,10,7,20,9,26,0.00,0,,177
2013-3-11,64,52,39,52,42,27,94,68,24,29.91,29.80,29.67,10,9,3,23,12,38,0.00,7,,202
2013-3-12,46,40,33,34,30,27,93,73,53,30.08,30.00,29.91,10,10,4,15,9,20,0.00,6,,268
2013-3-13,37,32,28,30,22,16,93,67,48,30.33,30.19,30.05,10,10,0,39,12,55,0.00,7,,283
2013-3-14,44,34,23,27,19,16,86,59,34,30.37,30.31,30.22,10,10,10,12,6,,0.00,2,,258
2013-3-15,64,48,33,39,32,27,81,59,39,30.22,30.01,29.83,10,10,10,15,6,17,0.00,1,,208
2013-3-16,69,58,48,48,44,41,76,53,43,29.97,29.79,29.72,10,10,7,24,14,32,0.00,3,,252
2013-3-17,46,40,35,39,36,34,100,89,76,30.07,30.00,29.92,10,8,3,14,8,18,0.00,8,,51
2013-3-18,55,46,37,52,44,36,100,90,76,29.92,29.77,29.67,10,8,1,22,9,33,0.00,7,,185
2013-3-19,48,40,33,36,23,9,93,56,20,30.14,30.04,29.89,10,10,10,23,12,33,0.00,1,,267
2013-3-20,46,35,24,23,16,10,59,45,27,30.14,30.04,29.92,10,10,10,28,10,38,0.00,2,,263
2013-3-21,32,26,19,14,11,9,80,57,38,30.04,30.00,29.95,10,10,10,13,7,20,0.00,3,,289
2013-3-22,42,28,15,19,14,10,93,54,29,30.09,30.03,29.98,10,10,10,7,3,,0.00,3,,186
2013-3-23,53,44,35,30,24,19,65,49,38,30.02,29.96,29.81,10,10,5,9,2,,0.00,5,,61
2013-3-24,44,40,35,41,33,21,100,81,39,29.81,29.57,29.36,10,7,1,16,6,36,0.00,7,,61
2013-3-25,39,34,30,36,29,27,93,88,75,29.97,29.70,29.48,10,5,0,26,17,41,0.00,8,,266
2013-3-26,39,36,32,30,30,27,93,86,65,30.26,30.11,29.97,10,9,4,13,10,22,0.00,8,,296
2013-3-27,41,34,28,28,25,21,87,67,49,30.34,30.30,30.25,10,10,10,10,6,,0.00,6,,276
2013-3-28,48,38,28,27,24,21,80,59,37,30.36,30.32,30.28,10,10,10,9,3,,0.00,2,,268
2013-3-29,51,40,28,37,30,23,93,69,33,30.32,30.28,30.23,10,10,10,10,4,,0.00,3,,194
2013-3-30,60,44,28,41,34,28,100,69,31,30.24,30.14,29.96,10,8,0,13,3,16,0.00,2,,146
2013-3-31,57,52,48,50,45,39,100,82,62,29.95,29.87,29.81,10,9,4,15,8,22,0.00,6,,228